sensor_id;sensor_type;location;lat;lon;timestamp;pressure;altitude;pressure_sealevel;temperature
78225;BMP280;67498;53.650;10.090;2024-01-06T00:01:14;100382.47;;;-0.51
78225;BMP280;67498;53.650;10.090;2024-01-06T00:03:40;100395.94;;;-0.42
78225;BMP280;67498;53.650;10.090;2024-01-06T00:06:05;100394.44;;;-0.43
78225;BMP280;67498;53.650;10.090;2024-01-06T00:08:31;100388.47;;;-0.47
78225;BMP280;67498;53.650;10.090;2024-01-06T00:10:56;100397.41;;;-0.41
78225;BMP280;67498;53.650;10.090;2024-01-06T00:13:21;100399.66;;;-0.39
78225;BMP280;67498;53.650;10.090;2024-01-06T00:15:46;100402.53;;;-0.41
78225;BMP280;67498;53.650;10.090;2024-01-06T00:18:12;100402.53;;;-0.41
78225;BMP280;67498;53.650;10.090;2024-01-06T00:20:37;100398.50;;;-0.42
78225;BMP280;67498;53.650;10.090;2024-01-06T00:23:03;100396.47;;;-0.49
78225;BMP280;67498;53.650;10.090;2024-01-06T00:25:28;100393.16;;;-0.49
78225;BMP280;67498;53.650;10.090;2024-01-06T00:27:53;100404.38;;;-0.42
78225;BMP280;67498;53.650;10.090;2024-01-06T00:30:19;100409.41;;;-0.45
78225;BMP280;67498;53.650;10.090;2024-01-06T00:32:44;100410.56;;;-0.43
78225;BMP280;67498;53.650;10.090;2024-01-06T00:35:09;100415.69;;;-0.43
78225;BMP280;67498;53.650;10.090;2024-01-06T00:37:34;100400.84;;;-0.49
78225;BMP280;67498;53.650;10.090;2024-01-06T00:40:00;100406.41;;;-0.47
78225;BMP280;67498;53.650;10.090;2024-01-06T00:42:25;100405.09;;;-0.41
78225;BMP280;67498;53.650;10.090;2024-01-06T00:44:50;100413.44;;;-0.44
78225;BMP280;67498;53.650;10.090;2024-01-06T00:47:15;100407.88;;;-0.46
78225;BMP280;67498;53.650;10.090;2024-01-06T00:49:41;100421.56;;;-0.42
78225;BMP280;67498;53.650;10.090;2024-01-06T00:52:06;100422.75;;;-0.39
78225;BMP280;67498;53.650;10.090;2024-01-06T00:54:31;100417.84;;;-0.45
78225;BMP280;67498;53.650;10.090;2024-01-06T00:56:57;100413.44;;;-0.44
78225;BMP280;67498;53.650;10.090;2024-01-06T00:59:22;100429.03;;;-0.37
78225;BMP280;67498;53.650;10.090;2024-01-06T01:01:47;100432.69;;;-0.38
78225;BMP280;67498;53.650;10.090;2024-01-06T01:04:12;100438.13;;;-0.39
78225;BMP280;67498;53.650;10.090;2024-01-06T01:06:37;100434.06;;;-0.40
78225;BMP280;67498;53.650;10.090;2024-01-06T01:09:03;100439.19;;;-0.40
78225;BMP280;67498;53.650;10.090;2024-01-06T01:11:29;100433.53;;;-0.46
78225;BMP280;67498;53.650;10.090;2024-01-06T01:13:55;100438.88;;;-0.39
78225;BMP280;67498;53.650;10.090;2024-01-06T01:16:20;100435.13;;;-0.42
78225;BMP280;67498;53.650;10.090;2024-01-06T01:18:45;100440.25;;;-0.42
78225;BMP280;67498;53.650;10.090;2024-01-06T01:21:10;100446.75;;;-0.44
78225;BMP280;67498;53.650;10.090;2024-01-06T01:23:36;100451.59;;;-0.43
78225;BMP280;67498;53.650;10.090;2024-01-06T01:26:01;100452.41;;;-0.51
78225;BMP280;67498;53.650;10.090;2024-01-06T01:28:26;100449.00;;;-0.55
78225;BMP280;67498;53.650;10.090;2024-01-06T01:30:52;100459.38;;;-0.51
78225;BMP280;67498;53.650;10.090;2024-01-06T01:33:17;100443.75;;;-0.58
78225;BMP280;67498;53.650;10.090;2024-01-06T01:35:43;100453.06;;;-0.54
78225;BMP280;67498;53.650;10.090;2024-01-06T01:38:08;100470.50;;;-0.47
78225;BMP280;67498;53.650;10.090;2024-01-06T01:40:33;100476.34;;;-0.47
78225;BMP280;67498;53.650;10.090;2024-01-06T01:42:59;100475.06;;;-0.53
78225;BMP280;67498;53.650;10.090;2024-01-06T01:45:24;100482.88;;;-0.49
78225;BMP280;67498;53.650;10.090;2024-01-06T01:47:50;100479.88;;;-0.51
78225;BMP280;67498;53.650;10.090;2024-01-06T01:50:15;100482.63;;;-0.56
78225;BMP280;67498;53.650;10.090;2024-01-06T01:52:42;100480.06;;;-0.56
78225;BMP280;67498;53.650;10.090;2024-01-06T01:55:08;100491.94;;;-0.52
78225;BMP280;67498;53.650;10.090;2024-01-06T01:57:33;100482.94;;;-0.58
78225;BMP280;67498;53.650;10.090;2024-01-06T02:00:00;100482.00;;;-0.53
78225;BMP280;67498;53.650;10.090;2024-01-06T02:02:25;100493.44;;;-0.51
78225;BMP280;67498;53.650;10.090;2024-01-06T02:04:51;100478.59;;;-0.57
78225;BMP280;67498;53.650;10.090;2024-01-06T02:07:16;100483.38;;;-0.56
78225;BMP280;67498;53.650;10.090;2024-01-06T02:09:42;100486.38;;;-0.54
78225;BMP280;67498;53.650;10.090;2024-01-06T02:12:07;100493.09;;;-0.61
78225;BMP280;67498;53.650;10.090;2024-01-06T02:14:32;100482.84;;;-0.61
78225;BMP280;67498;53.650;10.090;2024-01-06T02:16:58;100492.59;;;-0.55
78225;BMP280;67498;53.650;10.090;2024-01-06T02:19:23;100500.28;;;-0.55
78225;BMP280;67498;53.650;10.090;2024-01-06T02:21:52;100496.09;;;-0.59
78225;BMP280;67498;53.650;10.090;2024-01-06T02:24:17;100498.97;;;-0.61
78225;BMP280;67498;53.650;10.090;2024-01-06T02:26:43;100490.41;;;-0.65
78225;BMP280;67498;53.650;10.090;2024-01-06T02:29:08;100512.31;;;-0.55
78225;BMP280;67498;53.650;10.090;2024-01-06T02:31:33;100505.03;;;-0.66
78225;BMP280;67498;53.650;10.090;2024-01-06T02:33:58;100506.97;;;-0.63
78225;BMP280;67498;53.650;10.090;2024-01-06T02:36:24;100513.16;;;-0.64
78225;BMP280;67498;53.650;10.090;2024-01-06T02:38:49;100518.84;;;-0.58
78225;BMP280;67498;53.650;10.090;2024-01-06T02:41:14;100512.41;;;-0.64
78225;BMP280;67498;53.650;10.090;2024-01-06T02:43:39;100523.94;;;-0.58
78225;BMP280;67498;53.650;10.090;2024-01-06T02:46:06;100537.53;;;-0.57
78225;BMP280;67498;53.650;10.090;2024-01-06T02:48:32;100533.47;;;-0.58
78225;BMP280;67498;53.650;10.090;2024-01-06T02:50:57;100541.28;;;-0.55
78225;BMP280;67498;53.650;10.090;2024-01-06T02:53:22;100545.22;;;-0.57
78225;BMP280;67498;53.650;10.090;2024-01-06T02:55:48;100540.84;;;-0.57
78225;BMP280;67498;53.650;10.090;2024-01-06T02:58:13;100543.72;;;-0.58
78225;BMP280;67498;53.650;10.090;2024-01-06T03:00:38;100544.34;;;-0.61
78225;BMP280;67498;53.650;10.090;2024-01-06T03:03:04;100539.22;;;-0.61
78225;BMP280;67498;53.650;10.090;2024-01-06T03:05:29;100547.78;;;-0.57
78225;BMP280;67498;53.650;10.090;2024-01-06T03:07:54;100533.88;;;-0.69
78225;BMP280;67498;53.650;10.090;2024-01-06T03:10:20;100535.78;;;-0.66
78225;BMP280;67498;53.650;10.090;2024-01-06T03:12:45;100542.75;;;-0.66
78225;BMP280;67498;53.650;10.090;2024-01-06T03:15:10;100536.53;;;-0.65
78225;BMP280;67498;53.650;10.090;2024-01-06T03:17:36;100545.53;;;-0.59
78225;BMP280;67498;53.650;10.090;2024-01-06T03:20:01;100537.91;;;-0.68
78225;BMP280;67498;53.650;10.090;2024-01-06T03:22:27;100558.66;;;-0.60
78225;BMP280;67498;53.650;10.090;2024-01-06T03:24:52;100539.00;;;-0.69
78225;BMP280;67498;53.650;10.090;2024-01-06T03:27:17;100548.31;;;-0.64
78225;BMP280;67498;53.650;10.090;2024-01-06T03:29:43;100546.91;;;-0.61
78225;BMP280;67498;53.650;10.090;2024-01-06T03:32:08;100553.53;;;-0.60
78225;BMP280;67498;53.650;10.090;2024-01-06T03:34:33;100554.28;;;-0.60
78225;BMP280;67498;53.650;10.090;2024-01-06T03:36:58;100562.72;;;-0.59
78225;BMP280;67498;53.650;10.090;2024-01-06T03:39:24;100543.47;;;-0.66
78225;BMP280;67498;53.650;10.090;2024-01-06T03:41:49;100542.00;;;-0.67
78225;BMP280;67498;53.650;10.090;2024-01-06T03:44:14;100544.22;;;-0.65
78225;BMP280;67498;53.650;10.090;2024-01-06T03:46:39;100560.16;;;-0.59
78225;BMP280;67498;53.650;10.090;2024-01-06T03:49:05;100554.47;;;-0.65
78225;BMP280;67498;53.650;10.090;2024-01-06T03:51:30;100562.72;;;-0.59
78225;BMP280;67498;53.650;10.090;2024-01-06T03:53:55;100572.66;;;-0.58
78225;BMP280;67498;53.650;10.090;2024-01-06T03:56:21;100552.69;;;-0.65
78225;BMP280;67498;53.650;10.090;2024-01-06T03:58:46;100568.59;;;-0.59
78225;BMP280;67498;53.650;10.090;2024-01-06T04:01:11;100566.97;;;-0.64
78225;BMP280;67498;53.650;10.090;2024-01-06T04:03:38;100568.81;;;-0.64
78225;BMP280;67498;53.650;10.090;2024-01-06T04:06:05;100574.66;;;-0.64
78225;BMP280;67498;53.650;10.090;2024-01-06T04:08:31;100596.16;;;-0.56
78225;BMP280;67498;53.650;10.090;2024-01-06T04:10:56;100585.59;;;-0.54
78225;BMP280;67498;53.650;10.090;2024-01-06T04:13:21;100593.78;;;-0.61
78225;BMP280;67498;53.650;10.090;2024-01-06T04:15:47;100598.28;;;-0.58
78225;BMP280;67498;53.650;10.090;2024-01-06T04:18:12;100592.63;;;-0.64
78225;BMP280;67498;53.650;10.090;2024-01-06T04:20:37;100597.69;;;-0.55
78225;BMP280;67498;53.650;10.090;2024-01-06T04:23:03;100595.84;;;-0.54
78225;BMP280;67498;53.650;10.090;2024-01-06T04:25:28;100590.94;;;-0.59
78225;BMP280;67498;53.650;10.090;2024-01-06T04:27:53;100591.53;;;-0.63
78225;BMP280;67498;53.650;10.090;2024-01-06T04:30:18;100601.91;;;-0.59
78225;BMP280;67498;53.650;10.090;2024-01-06T04:32:45;100609.31;;;-0.57
78225;BMP280;67498;53.650;10.090;2024-01-06T04:35:13;100598.81;;;-0.65
78225;BMP280;67498;53.650;10.090;2024-01-06T04:37:39;100607.34;;;-0.60
78225;BMP280;67498;53.650;10.090;2024-01-06T04:40:04;100602.56;;;-0.62
78225;BMP280;67498;53.650;10.090;2024-01-06T04:42:29;100604.97;;;-0.66
78225;BMP280;67498;53.650;10.090;2024-01-06T04:44:55;100618.03;;;-0.58
78225;BMP280;67498;53.650;10.090;2024-01-06T04:47:20;100626.38;;;-0.61
78225;BMP280;67498;53.650;10.090;2024-01-06T04:49:45;100619.88;;;-0.59
78225;BMP280;67498;53.650;10.090;2024-01-06T04:52:11;100629.69;;;-0.61
78225;BMP280;67498;53.650;10.090;2024-01-06T04:54:36;100640.38;;;-0.59
78225;BMP280;67498;53.650;10.090;2024-01-06T04:57:02;100638.09;;;-0.60
78225;BMP280;67498;53.650;10.090;2024-01-06T04:59:27;100641.31;;;-0.64
78225;BMP280;67498;53.650;10.090;2024-01-06T05:01:53;100646.25;;;-0.58
78225;BMP280;67498;53.650;10.090;2024-01-06T05:04:18;100638.75;;;-0.64
78225;BMP280;67498;53.650;10.090;2024-01-06T05:06:44;100639.81;;;-0.65
78225;BMP280;67498;53.650;10.090;2024-01-06T05:09:09;100649.09;;;-0.60
78225;BMP280;67498;53.650;10.090;2024-01-06T05:11:34;100639.03;;;-0.65
78225;BMP280;67498;53.650;10.090;2024-01-06T05:14:00;100645.34;;;-0.63
78225;BMP280;67498;53.650;10.090;2024-01-06T05:16:25;100646.00;;;-0.66
78225;BMP280;67498;53.650;10.090;2024-01-06T05:18:50;100652.44;;;-0.59
78225;BMP280;67498;53.650;10.090;2024-01-06T05:21:16;100644.81;;;-0.68
78225;BMP280;67498;53.650;10.090;2024-01-06T05:23:41;100645.69;;;-0.64
78225;BMP280;67498;53.650;10.090;2024-01-06T05:26:06;100642.13;;;-0.72
78225;BMP280;67498;53.650;10.090;2024-01-06T05:28:32;100661.81;;;-0.64
78225;BMP280;67498;53.650;10.090;2024-01-06T05:30:57;100665.69;;;-0.57
78225;BMP280;67498;53.650;10.090;2024-01-06T05:33:22;100656.25;;;-0.66
78225;BMP280;67498;53.650;10.090;2024-01-06T05:35:48;100667.22;;;-0.65
78225;BMP280;67498;53.650;10.090;2024-01-06T05:38:13;100668.59;;;-0.68
78225;BMP280;67498;53.650;10.090;2024-01-06T05:40:39;100674.81;;;-0.69
78225;BMP280;67498;53.650;10.090;2024-01-06T05:43:04;100691.94;;;-0.60
78225;BMP280;67498;53.650;10.090;2024-01-06T05:45:29;100688.81;;;-0.66
78225;BMP280;67498;53.650;10.090;2024-01-06T05:47:54;100696.00;;;-0.59
78225;BMP280;67498;53.650;10.090;2024-01-06T05:50:19;100694.50;;;-0.60
78225;BMP280;67498;53.650;10.090;2024-01-06T05:52:45;100699.31;;;-0.59
78225;BMP280;67498;53.650;10.090;2024-01-06T05:55:12;100692.00;;;-0.69
78225;BMP280;67498;53.650;10.090;2024-01-06T05:57:37;100716.50;;;-0.59
78225;BMP280;67498;53.650;10.090;2024-01-06T06:00:03;100717.44;;;-0.64
78225;BMP280;67498;53.650;10.090;2024-01-06T06:02:29;100717.13;;;-0.63
78225;BMP280;67498;53.650;10.090;2024-01-06T06:04:55;100714.75;;;-0.68
78225;BMP280;67498;53.650;10.090;2024-01-06T06:07:20;100726.06;;;-0.69
78225;BMP280;67498;53.650;10.090;2024-01-06T06:09:45;100737.19;;;-0.65
78225;BMP280;67498;53.650;10.090;2024-01-06T06:12:13;100748.19;;;-0.64
78225;BMP280;67498;53.650;10.090;2024-01-06T06:14:38;100753.50;;;-0.69
78225;BMP280;67498;53.650;10.090;2024-01-06T06:17:04;100747.63;;;-0.70
78225;BMP280;67498;53.650;10.090;2024-01-06T06:19:29;100749.63;;;-0.75
78225;BMP280;67498;53.650;10.090;2024-01-06T06:21:54;100759.69;;;-0.70
78225;BMP280;67498;53.650;10.090;2024-01-06T06:24:20;100777.59;;;-0.61
78225;BMP280;67498;53.650;10.090;2024-01-06T06:26:45;100763.44;;;-0.68
78225;BMP280;67498;53.650;10.090;2024-01-06T06:29:10;100774.56;;;-0.64
78225;BMP280;67498;53.650;10.090;2024-01-06T06:31:35;100779.25;;;-0.66
78225;BMP280;67498;53.650;10.090;2024-01-06T06:34:01;100785.56;;;-0.63
78225;BMP280;67498;53.650;10.090;2024-01-06T06:36:26;100791.78;;;-0.64
78225;BMP280;67498;53.650;10.090;2024-01-06T06:38:51;100791.31;;;-0.66
78225;BMP280;67498;53.650;10.090;2024-01-06T06:41:16;100800.50;;;-0.65
78225;BMP280;67498;53.650;10.090;2024-01-06T06:43:42;100795.25;;;-0.69
78225;BMP280;67498;53.650;10.090;2024-01-06T06:46:07;100796.91;;;-0.64
78225;BMP280;67498;53.650;10.090;2024-01-06T06:48:33;100784.00;;;-0.76
78225;BMP280;67498;53.650;10.090;2024-01-06T06:51:00;100787.88;;;-0.70
78225;BMP280;67498;53.650;10.090;2024-01-06T06:53:26;100808.19;;;-0.65
78225;BMP280;67498;53.650;10.090;2024-01-06T06:55:51;100806.41;;;-0.65
78225;BMP280;67498;53.650;10.090;2024-01-06T06:58:16;100805.81;;;-0.70
78225;BMP280;67498;53.650;10.090;2024-01-06T07:00:42;100813.19;;;-0.69
78225;BMP280;67498;53.650;10.090;2024-01-06T07:03:08;100827.22;;;-0.66
78225;BMP280;67498;53.650;10.090;2024-01-06T07:05:33;100817.72;;;-0.74
78225;BMP280;67498;53.650;10.090;2024-01-06T07:08:00;100820.72;;;-0.72
78225;BMP280;67498;53.650;10.090;2024-01-06T07:10:25;100828.56;;;-0.69
78225;BMP280;67498;53.650;10.090;2024-01-06T07:12:51;100825.00;;;-0.76
78225;BMP280;67498;53.650;10.090;2024-01-06T07:15:16;100841.56;;;-0.74
78225;BMP280;67498;53.650;10.090;2024-01-06T07:17:41;100834.31;;;-0.72
78225;BMP280;67498;53.650;10.090;2024-01-06T07:20:07;100833.53;;;-0.72
78225;BMP280;67498;53.650;10.090;2024-01-06T07:22:33;100826.34;;;-0.79
78225;BMP280;67498;53.650;10.090;2024-01-06T07:25:00;100836.88;;;-0.72
78225;BMP280;67498;53.650;10.090;2024-01-06T07:27:26;100846.38;;;-0.72
78225;BMP280;67498;53.650;10.090;2024-01-06T07:29:51;100858.88;;;-0.71
78225;BMP280;67498;53.650;10.090;2024-01-06T07:32:17;100848.34;;;-0.78
78225;BMP280;67498;53.650;10.090;2024-01-06T07:34:42;100857.09;;;-0.79
78225;BMP280;67498;53.650;10.090;2024-01-06T07:37:08;100855.75;;;-0.76
78225;BMP280;67498;53.650;10.090;2024-01-06T07:39:34;100867.50;;;-0.75
78225;BMP280;67498;53.650;10.090;2024-01-06T07:41:59;100871.25;;;-0.73
78225;BMP280;67498;53.650;10.090;2024-01-06T07:44:24;100870.19;;;-0.72
78225;BMP280;67498;53.650;10.090;2024-01-06T07:46:50;100865.66;;;-0.75
78225;BMP280;67498;53.650;10.090;2024-01-06T07:49:16;100882.41;;;-0.69
78225;BMP280;67498;53.650;10.090;2024-01-06T07:51:41;100883.59;;;-0.75
78225;BMP280;67498;53.650;10.090;2024-01-06T07:54:07;100885.13;;;-0.74
78225;BMP280;67498;53.650;10.090;2024-01-06T07:56:34;100902.91;;;-0.69
78225;BMP280;67498;53.650;10.090;2024-01-06T07:58:59;100902.91;;;-0.69
78225;BMP280;67498;53.650;10.090;2024-01-06T08:01:24;100893.41;;;-0.77
78225;BMP280;67498;53.650;10.090;2024-01-06T08:03:49;100902.63;;;-0.76
78225;BMP280;67498;53.650;10.090;2024-01-06T08:06:15;100910.59;;;-0.69
78225;BMP280;67498;53.650;10.090;2024-01-06T08:08:41;100917.25;;;-0.76
78225;BMP280;67498;53.650;10.090;2024-01-06T08:11:06;100921.59;;;-0.68
78225;BMP280;67498;53.650;10.090;2024-01-06T08:13:31;100920.84;;;-0.69
78225;BMP280;67498;53.650;10.090;2024-01-06T08:15:56;100934.41;;;-0.68
78225;BMP280;67498;53.650;10.090;2024-01-06T08:18:22;100921.75;;;-0.73
78225;BMP280;67498;53.650;10.090;2024-01-06T08:20:47;100936.50;;;-0.70
78225;BMP280;67498;53.650;10.090;2024-01-06T08:23:12;100933.81;;;-0.74
78225;BMP280;67498;53.650;10.090;2024-01-06T08:25:38;100942.84;;;-0.68
78225;BMP280;67498;53.650;10.090;2024-01-06T08:28:03;100949.47;;;-0.67
78225;BMP280;67498;53.650;10.090;2024-01-06T08:30:29;100956.41;;;-0.67
78225;BMP280;67498;53.650;10.090;2024-01-06T08:32:54;100957.75;;;-0.70
78225;BMP280;67498;53.650;10.090;2024-01-06T08:35:19;100960.03;;;-0.68
78225;BMP280;67498;53.650;10.090;2024-01-06T08:37:45;100960.03;;;-0.68
78225;BMP280;67498;53.650;10.090;2024-01-06T08:40:11;100964.09;;;-0.67
78225;BMP280;67498;53.650;10.090;2024-01-06T08:42:36;100973.00;;;-0.65
78225;BMP280;67498;53.650;10.090;2024-01-06T08:45:02;100967.72;;;-0.68
78225;BMP280;67498;53.650;10.090;2024-01-06T08:47:27;100985.50;;;-0.63
78225;BMP280;67498;53.650;10.090;2024-01-06T08:49:53;100976.91;;;-0.67
78225;BMP280;67498;53.650;10.090;2024-01-06T08:52:18;100990.50;;;-0.67
78225;BMP280;67498;53.650;10.090;2024-01-06T08:54:43;101000.59;;;-0.61
78225;BMP280;67498;53.650;10.090;2024-01-06T08:57:09;101001.03;;;-0.59
78225;BMP280;67498;53.650;10.090;2024-01-06T08:59:34;100999.97;;;-0.67
78225;BMP280;67498;53.650;10.090;2024-01-06T09:02:00;101007.34;;;-0.66
78225;BMP280;67498;53.650;10.090;2024-01-06T09:04:26;101021.09;;;-0.61
78225;BMP280;67498;53.650;10.090;2024-01-06T09:06:51;101021.53;;;-0.59
78225;BMP280;67498;53.650;10.090;2024-01-06T09:09:17;101013.84;;;-0.68
78225;BMP280;67498;53.650;10.090;2024-01-06T09:11:42;101011.28;;;-0.68
78225;BMP280;67498;53.650;10.090;2024-01-06T09:14:09;101029.22;;;-0.59
78225;BMP280;67498;53.650;10.090;2024-01-06T09:16:35;101026.81;;;-0.65
78225;BMP280;67498;53.650;10.090;2024-01-06T09:19:01;101044.28;;;-0.58
78225;BMP280;67498;53.650;10.090;2024-01-06T09:21:27;101044.44;;;-0.63
78225;BMP280;67498;53.650;10.090;2024-01-06T09:23:52;101044.91;;;-0.61
78225;BMP280;67498;53.650;10.090;2024-01-06T09:26:17;101052.44;;;-0.56
78225;BMP280;67498;53.650;10.090;2024-01-06T09:28:42;101059.50;;;-0.53
78225;BMP280;67498;53.650;10.090;2024-01-06T09:31:08;101058.47;;;-0.52
78225;BMP280;67498;53.650;10.090;2024-01-06T09:33:33;101043.53;;;-0.58
78225;BMP280;67498;53.650;10.090;2024-01-06T09:35:59;101068.84;;;-0.48
78225;BMP280;67498;53.650;10.090;2024-01-06T09:38:24;101059.50;;;-0.53
78225;BMP280;67498;53.650;10.090;2024-01-06T09:40:50;101071.88;;;-0.46
78225;BMP280;67498;53.650;10.090;2024-01-06T09:43:16;101073.41;;;-0.45
78225;BMP280;67498;53.650;10.090;2024-01-06T09:45:41;101071.28;;;-0.52
78225;BMP280;67498;53.650;10.090;2024-01-06T09:48:11;101082.88;;;-0.46
78225;BMP280;67498;53.650;10.090;2024-01-06T09:50:40;101081.25;;;-0.50
78225;BMP280;67498;53.650;10.090;2024-01-06T09:53:06;101082.75;;;-0.49
78225;BMP280;67498;53.650;10.090;2024-01-06T09:55:34;101095.88;;;-0.42
78225;BMP280;67498;53.650;10.090;2024-01-06T09:58:00;101094.03;;;-0.42
78225;BMP280;67498;53.650;10.090;2024-01-06T10:00:26;101091.94;;;-0.39
78225;BMP280;67498;53.650;10.090;2024-01-06T10:02:51;101090.72;;;-0.42
78225;BMP280;67498;53.650;10.090;2024-01-06T10:05:17;101084.25;;;-0.48
78225;BMP280;67498;53.650;10.090;2024-01-06T10:07:44;101089.06;;;-0.47
78225;BMP280;67498;53.650;10.090;2024-01-06T10:10:10;101101.44;;;-0.40
78225;BMP280;67498;53.650;10.090;2024-01-06T10:12:38;101102.66;;;-0.37
78225;BMP280;67498;53.650;10.090;2024-01-06T10:15:10;101102.66;;;-0.37
78225;BMP280;67498;53.650;10.090;2024-01-06T10:17:40;101106.41;;;-0.35
78225;BMP280;67498;53.650;10.090;2024-01-06T10:20:10;101105.06;;;-0.41
78225;BMP280;67498;53.650;10.090;2024-01-06T10:22:41;101117.41;;;-0.34
78225;BMP280;67498;53.650;10.090;2024-01-06T10:25:07;101120.16;;;-0.39
78225;BMP280;67498;53.650;10.090;2024-01-06T10:27:39;101122.56;;;-0.34
78225;BMP280;67498;53.650;10.090;2024-01-06T10:30:09;101111.25;;;-0.42
78225;BMP280;67498;53.650;10.090;2024-01-06T10:32:35;101117.13;;;-0.42
78225;BMP280;67498;53.650;10.090;2024-01-06T10:35:02;101105.66;;;-0.44
78225;BMP280;67498;53.650;10.090;2024-01-06T10:37:28;101122.88;;;-0.45
78225;BMP280;67498;53.650;10.090;2024-01-06T10:40:07;101130.09;;;-0.38
78225;BMP280;67498;53.650;10.090;2024-01-06T10:42:32;101126.03;;;-0.39
78225;BMP280;67498;53.650;10.090;2024-01-06T10:44:59;101130.69;;;-0.41
78225;BMP280;67498;53.650;10.090;2024-01-06T10:47:25;101128.91;;;-0.40
78225;BMP280;67498;53.650;10.090;2024-01-06T10:49:51;101130.09;;;-0.38
78225;BMP280;67498;53.650;10.090;2024-01-06T10:52:20;101122.56;;;-0.43
78225;BMP280;67498;53.650;10.090;2024-01-06T10:54:46;101124.06;;;-0.42
78225;BMP280;67498;53.650;10.090;2024-01-06T10:57:15;101130.56;;;-0.36
78225;BMP280;67498;53.650;10.090;2024-01-06T10:59:40;101118.78;;;-0.46
78225;BMP280;67498;53.650;10.090;2024-01-06T11:02:06;101130.72;;;-0.32
78225;BMP280;67498;53.650;10.090;2024-01-06T11:04:33;101137.94;;;-0.34
78225;BMP280;67498;53.650;10.090;2024-01-06T11:06:58;101145.22;;;-0.28
78225;BMP280;67498;53.650;10.090;2024-01-06T11:09:27;101135.84;;;-0.32
78225;BMP280;67498;53.650;10.090;2024-01-06T11:11:56;101136.13;;;-0.34
78225;BMP280;67498;53.650;10.090;2024-01-06T11:14:26;101146.72;;;-0.27
78225;BMP280;67498;53.650;10.090;2024-01-06T11:16:53;101136.44;;;-0.35
78225;BMP280;67498;53.650;10.090;2024-01-06T11:22:26;101146.13;;;-0.32
78225;BMP280;67498;53.650;10.090;2024-01-06T11:25:03;101151.66;;;-0.39
78225;BMP280;67498;53.650;10.090;2024-01-06T11:27:30;101148.81;;;-0.37
78225;BMP280;67498;53.650;10.090;2024-01-06T11:29:57;101144.28;;;-0.40
78225;BMP280;67498;53.650;10.090;2024-01-06T11:32:30;101143.38;;;-0.45
78225;BMP280;67498;53.650;10.090;2024-01-06T11:35:05;101139.91;;;-0.49
78225;BMP280;67498;53.650;10.090;2024-01-06T11:40:09;101145.34;;;-0.42
78225;BMP280;67498;53.650;10.090;2024-01-06T11:42:35;101135.53;;;-0.48
78225;BMP280;67498;53.650;10.090;2024-01-06T11:45:04;101144.59;;;-0.42
78225;BMP280;67498;53.650;10.090;2024-01-06T11:47:32;101149.84;;;-0.38
78225;BMP280;67498;53.650;10.090;2024-01-06T11:49:58;101154.53;;;-0.40
78225;BMP280;67498;53.650;10.090;2024-01-06T11:52:24;101155.91;;;-0.43
78225;BMP280;67498;53.650;10.090;2024-01-06T11:54:52;101147.16;;;-0.42
78225;BMP280;67498;53.650;10.090;2024-01-06T11:57:17;101161.31;;;-0.45
78225;BMP280;67498;53.650;10.090;2024-01-06T11:59:42;101161.31;;;-0.45
78225;BMP280;67498;53.650;10.090;2024-01-06T12:02:11;101148.19;;;-0.52
78225;BMP280;67498;53.650;10.090;2024-01-06T12:04:37;101152.72;;;-0.49
78225;BMP280;67498;53.650;10.090;2024-01-06T12:07:09;101155.91;;;-0.52
78225;BMP280;67498;53.650;10.090;2024-01-06T12:09:34;101139.00;;;-0.61
78225;BMP280;67498;53.650;10.090;2024-01-06T12:12:04;101156.94;;;-0.53
78225;BMP280;67498;53.650;10.090;2024-01-06T12:14:33;101154.38;;;-0.53
78225;BMP280;67498;53.650;10.090;2024-01-06T12:16:59;101150.59;;;-0.55
78225;BMP280;67498;53.650;10.090;2024-01-06T12:19:31;101144.88;;;-0.61
78225;BMP280;67498;53.650;10.090;2024-01-06T12:21:57;101147.72;;;-0.63
78225;BMP280;67498;53.650;10.090;2024-01-06T12:24:22;101157.09;;;-0.58
78225;BMP280;67498;53.650;10.090;2024-01-06T12:26:47;101173.25;;;-0.57
78225;BMP280;67498;53.650;10.090;2024-01-06T12:29:13;101151.50;;;-0.69
78225;BMP280;67498;53.650;10.090;2024-01-06T12:31:39;101170.22;;;-0.59
78225;BMP280;67498;53.650;10.090;2024-01-06T12:34:05;101171.72;;;-0.58
78225;BMP280;67498;53.650;10.090;2024-01-06T12:36:33;101174.28;;;-0.58
78225;BMP280;67498;53.650;10.090;2024-01-06T12:38:59;101173.53;;;-0.59
78225;BMP280;67498;53.650;10.090;2024-01-06T12:41:24;101183.31;;;-0.61
78225;BMP280;67498;53.650;10.090;2024-01-06T12:43:49;101181.38;;;-0.64
78225;BMP280;67498;53.650;10.090;2024-01-06T12:46:15;101189.94;;;-0.60
78225;BMP280;67498;53.650;10.090;2024-01-06T12:48:41;101186.34;;;-0.59
78225;BMP280;67498;53.650;10.090;2024-01-06T12:51:06;101182.25;;;-0.60
78225;BMP280;67498;53.650;10.090;2024-01-06T12:53:32;101179.84;;;-0.65
78225;BMP280;67498;53.650;10.090;2024-01-06T12:55:57;101182.72;;;-0.58
78225;BMP280;67498;53.650;10.090;2024-01-06T12:58:22;101182.13;;;-0.64
78225;BMP280;67498;53.650;10.090;2024-01-06T13:00:48;101191.91;;;-0.66
78225;BMP280;67498;53.650;10.090;2024-01-06T13:03:14;101211.97;;;-0.59
78225;BMP280;67498;53.650;10.090;2024-01-06T13:05:39;101191.91;;;-0.66
78225;BMP280;67498;53.650;10.090;2024-01-06T13:08:05;101200.97;;;-0.59
78225;BMP280;67498;53.650;10.090;2024-01-06T13:10:30;101204.00;;;-0.57
78225;BMP280;67498;53.650;10.090;2024-01-06T13:12:56;101210.91;;;-0.58
78225;BMP280;67498;53.650;10.090;2024-01-06T13:15:21;101207.00;;;-0.64
78225;BMP280;67498;53.650;10.090;2024-01-06T13:17:46;101213.81;;;-0.59
78225;BMP280;67498;53.650;10.090;2024-01-06T13:20:12;101212.59;;;-0.62
78225;BMP280;67498;53.650;10.090;2024-01-06T13:22:37;101208.66;;;-0.68
78225;BMP280;67498;53.650;10.090;2024-01-06T13:25:02;101215.72;;;-0.65
78225;BMP280;67498;53.650;10.090;2024-01-06T13:27:28;101226.44;;;-0.63
78225;BMP280;67498;53.650;10.090;2024-01-06T13:29:54;101229.31;;;-0.65
78225;BMP280;67498;53.650;10.090;2024-01-06T13:32:19;101226.75;;;-0.65
78225;BMP280;67498;53.650;10.090;2024-01-06T13:34:47;101224.16;;;-0.73
78225;BMP280;67498;53.650;10.090;2024-01-06T13:37:12;101244.38;;;-0.72
78225;BMP280;67498;53.650;10.090;2024-01-06T13:39:37;101249.94;;;-0.70
78225;BMP280;67498;53.650;10.090;2024-01-06T13:42:03;101238.00;;;-0.74